Record high temperature 38.5°C Record low temperature -6.1°C Record high gust 94.9 km/h Record high average 70.9 km/h Record daily rain 58.2 mm Record low windchill -9.9°C Record high barometer 1045.9 hPa Record low barometer 985.2 hPa
Daily high pressure 1028.3 hPa Daily low pressure 1028.0 hPa Daily low windchill -2.2°C Daily high heat index -0.3°C Daily high gust speed 6.4 kmh NNE Daily high average speed 4.8 kmh NNE
Stazione meteo Crema centro
ULTIMO RILEVAMENTO ALLE ORE: 00:20 GIORNO: 22 Gennaio 2022 prossimo aggiornamento ore: 00:25
Tempo presenteNight time/Dry/Clear Temperatura attuale -0.8°C (30.6°F), temperatura apparente -2.8°C
Temperatura massima (da mezzanotte)-0.3°C alle ore: 00:00 Temperatura minima (da mezzanotte)-0.8°C alle ore: 00:19
Forza media vento (dieci minuti)1.9 kmh (1.0 kts) Direzione vento (dieci minuti)NNE (22°)
Temperatura vento -0.8°C Massima forza (ultima ora)6.4 kmh (3.5 kts) alle ore: 00:16
Massima forza (da mezzanotte)6.4 kmh (3.5 kts) alle ore: 00:16 Massimo vento 1 minuto (da mezzanotte)4.8 kmh (2.6 kts) alle ore: 00:17
Pioggia (ultima ora)0.0 mm Pioggia (da mezzanotte)0.0 mm (0.00 in.)---
Pioggia Questo mese 12.4 mm (0.49 in.) Pioggia Questo anno 12.4 mm (0.49 in.)
Massima pioggia per minuto (ultima ora)0.0 mm/min Massima pioggia per ora (ultime 6 ore)0.0 mm/ore
Pioggia di ieri 0.0 mm DewPoint -1.3°C (Wet Bulb :-1.0°C )
Umidita 96 %, Humidex -3.3°C Pressione S.L.M.1028.3 hPa (QNH 1028.3 hPa
Variazione pressione +0.4 hPa (ultima ora) Tendenza (ultime 1 ore)Stazionaria
Variazione pressione (ultime 12 ore)+2.3 hPa Variazione pressione (ultime 6 ore)+2.4 hPa
Current Solar 0 W/mē
Maximum solar (da mezzanotte) 0 W/mē Minimum solar (da mezzanotte)0 W/mē
Current 00:00 hours of sunshine today, current sky: Night time/Dry/Clear
Sunshine hours for the year: 62:39 hrs Sunshine hours for the month: 62:39 hrs
Current evapotranspiration rate 0.1 mm per day. Yesterday's reading 0.3

Questa pagina e` aggiornata con i dati della stazione meteo DAVIS VP Premere Reload o Refresh per facilitare la lettura dei dati aggiornati.

Status report of weather station: IK2CHZ - Crema meteo



Weather report/warning/Metars

Milano / Linate, Italy (LIML) 45-26N 009-17E 103M
Jan 21, 2022 - 05:50 PM EST / 2022.01.21 2250 UTC
Wind: from the WNW (290 degrees) at 2 MPH (2 KT):0
Visibility: less than 1 mile:0
Weather: freezing fog
Temperature: 30 F (-1 C)
Dew Point: 30 F (-1 C)
Relative Humidity: 100%
Pressure (altimeter): 30.33 in. Hg (1027 hPa)
ob: LIML 212250Z 29002KT 0800 R36/1400D FZFG NSC M01/M01 Q1027 NOSIG
cycle: 23
Bergamo / Orio Al Serio, Italy (LIME) 45-40N 009-42E 237M
Jan 21, 2022 - 05:50 PM EST / 2022.01.21 2250 UTC
Wind: from the N (350 degrees) at 3 MPH (3 KT):0
Visibility: greater than 7 mile(s):0
Temperature: 32 F (0 C)
Dew Point: 24 F (-4 C)
Relative Humidity: 74%
Pressure (altimeter): 30.30 in. Hg (1026 hPa)
ob: LIME 212250Z AUTO 35003KT 9999 NCD M00/M04 Q1026
cycle: 23
Piacenza, Italy (LIMS) 44-55N 009-44E 138M
Jan 21, 2022 - 12:55 PM EST / 2022.01.21 1755 UTC
Wind: from the WSW (240 degrees) at 2 MPH (2 KT):0
Visibility: 1 mile(s):0
Sky conditions: partly cloudy
Weather: mist
Temperature: 33 F (1 C)
Dew Point: 33 F (1 C)
Relative Humidity: 100%
Pressure (altimeter): 30.24 in. Hg (1024 hPa)
ob: LIMS 211755Z 24002KT 2500 BR SCT007 01/01 Q1024
cycle: 18